createdAt,value
2023-01-29T00:00:31.935Z,101428.50
2023-01-29T00:02:58.409Z,101423.81
2023-01-29T00:05:28.772Z,101427.66
2023-01-29T00:07:55.278Z,101413.09
2023-01-29T00:10:22.522Z,101413.13
2023-01-29T00:12:48.970Z,101402.06
2023-01-29T00:15:15.337Z,101407.66
2023-01-29T00:17:41.751Z,101407.06
2023-01-29T00:20:08.137Z,101403.94
2023-01-29T00:22:34.528Z,101395.53
2023-01-29T00:25:01.101Z,101391.53
2023-01-29T00:27:27.439Z,101389.06
2023-01-29T00:29:53.833Z,101385.13
2023-01-29T00:32:20.449Z,101384.78
2023-01-29T00:37:30.653Z,101387.16
2023-01-29T00:39:57.870Z,101380.78
2023-01-29T00:42:24.213Z,101384.66
2023-01-29T00:44:50.630Z,101382.28
2023-01-29T00:47:16.958Z,101379.53
2023-01-29T00:52:38.216Z,101361.69
2023-01-29T00:55:04.777Z,101370.00
2023-01-29T00:57:31.145Z,101363.25
2023-01-29T00:59:57.561Z,101358.44
2023-01-29T01:02:24.046Z,101348.16
2023-01-29T01:07:34.493Z,101345.69
2023-01-29T01:10:00.855Z,101335.00
2023-01-29T01:12:27.229Z,101329.09
2023-01-29T01:14:53.604Z,101326.69
2023-01-29T01:17:20.889Z,101327.56
2023-01-29T01:22:31.222Z,101316.31
2023-01-29T01:24:57.545Z,101316.31
2023-01-29T01:27:23.952Z,101325.47
2023-01-29T01:29:50.297Z,101320.28
2023-01-29T01:32:16.682Z,101310.78
2023-01-29T01:37:37.118Z,101321.44
2023-01-29T01:40:03.526Z,101322.69
2023-01-29T01:42:29.845Z,101315.53
2023-01-29T01:44:56.203Z,101308.81
2023-01-29T01:47:22.614Z,101313.19
2023-01-29T01:52:32.633Z,101324.66
2023-01-29T01:54:58.960Z,101323.91
2023-01-29T01:57:25.341Z,101322.66
2023-01-29T01:59:51.717Z,101321.81
2023-01-29T02:02:19.019Z,101325.34
2023-01-29T02:07:39.337Z,101329.41
2023-01-29T02:10:05.713Z,101327.38
2023-01-29T02:12:32.068Z,101331.31
2023-01-29T02:14:58.496Z,101323.00
2023-01-29T02:17:24.932Z,101327.44
2023-01-29T02:22:45.170Z,101316.69
2023-01-29T02:25:11.539Z,101311.13
2023-01-29T02:27:39.111Z,101305.63
2023-01-29T02:30:05.479Z,101306.38
2023-01-29T02:32:31.815Z,101296.06
2023-01-29T02:37:42.409Z,101295.59
2023-01-29T02:40:08.750Z,101300.75
2023-01-29T02:42:35.089Z,101292.44
2023-01-29T02:45:01.422Z,101281.72
2023-01-29T02:47:27.799Z,101281.72
2023-01-29T02:52:47.989Z,101290.41
2023-01-29T02:55:14.352Z,101288.91
2023-01-29T02:57:40.704Z,101295.16
2023-01-29T03:00:07.057Z,101278.50
2023-01-29T03:02:33.427Z,101275.34
2023-01-29T03:07:43.390Z,101273.34
2023-01-29T03:10:09.767Z,101278.91
2023-01-29T03:12:36.161Z,101274.19
2023-01-29T03:15:02.510Z,101273.03
2023-01-29T03:17:28.923Z,101272.94
2023-01-29T03:22:39.378Z,101266.19
2023-01-29T03:25:05.788Z,101264.16
2023-01-29T03:27:32.186Z,101261.81
2023-01-29T03:29:58.547Z,101268.63
2023-01-29T03:32:24.923Z,101268.53
2023-01-29T03:34:51.260Z,101269.03
2023-01-29T03:37:17.603Z,101268.63
2023-01-29T03:39:43.948Z,101264.28
2023-01-29T03:42:10.296Z,101260.25
2023-01-29T03:44:36.617Z,101269.28
2023-01-29T03:47:02.982Z,101271.34
2023-01-29T03:49:29.328Z,101266.97
2023-01-29T03:51:55.707Z,101261.00
2023-01-29T03:54:22.072Z,101259.78
2023-01-29T03:56:48.420Z,101258.25
2023-01-29T03:59:15.623Z,101261.44
2023-01-29T04:01:42.021Z,101253.06
2023-01-29T04:04:08.453Z,101250.66
2023-01-29T04:06:34.823Z,101253.06
2023-01-29T04:09:01.237Z,101259.03
2023-01-29T04:11:28.763Z,101255.03
2023-01-29T04:13:55.093Z,101246.81
2023-01-29T04:16:21.437Z,101251.56
2023-01-29T04:18:47.810Z,101243.56
2023-01-29T04:21:14.215Z,101245.16
2023-01-29T04:23:40.539Z,101240.38
2023-01-29T04:26:06.864Z,101222.19
2023-01-29T04:28:33.233Z,101226.50
2023-01-29T04:30:59.772Z,101226.47
2023-01-29T04:33:26.196Z,101233.22
2023-01-29T04:35:52.541Z,101234.41
2023-01-29T04:38:18.866Z,101225.66
2023-01-29T04:40:45.206Z,101230.47
2023-01-29T04:43:11.550Z,101229.28
2023-01-29T04:45:37.909Z,101227.66
2023-01-29T04:48:04.284Z,101225.66
2023-01-29T04:50:30.862Z,101218.16
2023-01-29T04:55:41.369Z,101216.50
2023-01-29T04:58:07.735Z,101210.63
2023-01-29T05:00:34.063Z,101209.00
2023-01-29T05:03:00.457Z,101208.63
2023-01-29T05:05:26.852Z,101212.97
2023-01-29T05:10:47.121Z,101218.94
2023-01-29T05:13:13.495Z,101215.75
2023-01-29T05:15:39.856Z,101208.97
2023-01-29T05:18:06.262Z,101216.16
2023-01-29T05:20:32.596Z,101210.94
2023-01-29T05:25:52.635Z,101199.44
2023-01-29T05:28:18.997Z,101204.19
2023-01-29T05:30:45.352Z,101200.63
2023-01-29T05:33:11.829Z,101199.44
2023-01-29T05:35:38.156Z,101197.84
2023-01-29T05:40:48.076Z,101176.88
2023-01-29T05:43:14.453Z,101185.56
2023-01-29T05:45:40.829Z,101181.19
2023-01-29T05:48:07.199Z,101182.47
2023-01-29T05:50:33.695Z,101179.34
2023-01-29T05:55:44.049Z,101176.13
2023-01-29T05:58:10.390Z,101170.94
2023-01-29T06:00:36.736Z,101174.13
2023-01-29T06:03:03.172Z,101177.34
2023-01-29T06:05:29.550Z,101180.88
2023-01-29T06:10:49.494Z,101184.00
2023-01-29T06:13:15.884Z,101185.66
2023-01-29T06:15:42.265Z,101184.47
2023-01-29T06:18:08.617Z,101183.75
2023-01-29T06:20:34.989Z,101174.63
2023-01-29T06:25:46.317Z,101185.84
2023-01-29T06:28:13.579Z,101192.19
2023-01-29T06:30:40.861Z,101189.88
2023-01-29T06:33:09.115Z,101178.81
2023-01-29T06:35:36.406Z,101176.38
2023-01-29T06:40:46.832Z,101180.41
2023-01-29T06:43:14.048Z,101182.06
2023-01-29T06:45:40.418Z,101189.59
2023-01-29T06:48:07.983Z,101178.09
2023-01-29T06:50:34.312Z,101185.25
2023-01-29T06:55:54.204Z,101178.47
2023-01-29T06:58:20.616Z,101179.31
2023-01-29T07:00:47.022Z,101182.44
2023-01-29T07:03:13.372Z,101189.66
2023-01-29T07:05:39.750Z,101178.53
2023-01-29T07:10:49.948Z,101165.81
2023-01-29T07:13:16.537Z,101160.63
2023-01-29T07:15:43.128Z,101167.03
2023-01-29T07:18:09.851Z,101162.69
2023-01-29T07:20:36.442Z,101163.88
2023-01-29T07:25:56.447Z,101164.28
2023-01-29T07:28:22.878Z,101164.66
2023-01-29T07:30:49.229Z,101174.56
2023-01-29T07:33:16.429Z,101181.75
2023-01-29T07:35:42.774Z,101186.88
2023-01-29T07:40:53.165Z,101194.88
2023-01-29T07:43:19.512Z,101192.47
2023-01-29T07:45:46.031Z,101191.28
2023-01-29T07:48:12.413Z,101185.00
2023-01-29T07:50:38.767Z,101179.06
2023-01-29T07:53:05.116Z,101179.06
2023-01-29T07:55:31.780Z,101171.91
2023-01-29T07:57:58.186Z,101170.31
2023-01-29T08:00:24.548Z,101156.81
2023-01-29T08:02:50.899Z,101161.56
2023-01-29T08:05:17.348Z,101169.94
2023-01-29T08:07:44.847Z,101169.13
2023-01-29T08:10:14.631Z,101167.91
2023-01-29T08:12:41.051Z,101161.56
2023-01-29T08:15:07.401Z,101155.97
2023-01-29T08:17:33.790Z,101140.06
2023-01-29T08:20:00.145Z,101143.22
2023-01-29T08:22:26.516Z,101141.66
2023-01-29T08:24:59.915Z,101135.72
2023-01-29T08:27:26.720Z,101138.88
2023-01-29T08:29:53.171Z,101138.50
2023-01-29T08:32:19.654Z,101146.84
2023-01-29T08:34:46.143Z,101148.78
2023-01-29T08:37:13.472Z,101149.63
2023-01-29T08:39:39.877Z,101155.97
2023-01-29T08:42:06.310Z,101149.56
2023-01-29T08:44:33.771Z,101152.00
2023-01-29T08:47:01.278Z,101140.88
2023-01-29T08:49:28.711Z,101139.72
2023-01-29T08:51:55.187Z,101138.06
2023-01-29T08:54:21.750Z,101138.03
2023-01-29T08:56:48.209Z,101134.78
2023-01-29T08:59:15.614Z,101142.72
2023-01-29T09:01:42.328Z,101136.75
2023-01-29T09:04:08.838Z,101135.44
2023-01-29T09:06:36.222Z,101136.31
2023-01-29T09:09:03.575Z,101138.75
2023-01-29T09:14:27.698Z,101118.09
2023-01-29T09:16:55.096Z,101118.13
2023-01-29T09:19:22.370Z,101120.09
2023-01-29T09:21:49.685Z,101103.81
2023-01-29T09:24:16.957Z,101115.31
2023-01-29T09:29:29.396Z,101115.34
2023-01-29T09:31:55.949Z,101108.19
2023-01-29T09:34:23.290Z,101109.75
2023-01-29T09:36:50.725Z,101111.81
2023-01-29T09:39:18.001Z,101103.50
2023-01-29T09:44:29.553Z,101099.94
2023-01-29T09:46:55.994Z,101092.00
2023-01-29T09:49:23.282Z,101087.97
2023-01-29T09:51:51.587Z,101088.81
2023-01-29T09:54:18.921Z,101090.81
2023-01-29T09:59:32.938Z,101082.81
2023-01-29T10:01:59.502Z,101081.28
2023-01-29T10:04:26.087Z,101082.91
2023-01-29T10:06:52.589Z,101076.53
2023-01-29T10:09:19.250Z,101077.34
2023-01-29T10:14:32.449Z,101071.72
2023-01-29T10:16:58.888Z,101074.13
2023-01-29T10:19:25.363Z,101061.09
2023-01-29T10:21:51.795Z,101064.97
2023-01-29T10:24:18.280Z,101055.44
2023-01-29T10:29:39.323Z,101057.41
2023-01-29T10:32:06.828Z,101052.19
2023-01-29T10:34:34.173Z,101057.47
2023-01-29T10:37:00.801Z,101060.69
2023-01-29T10:39:28.181Z,101058.59
2023-01-29T10:44:40.101Z,101054.59
2023-01-29T10:47:06.601Z,101053.00
2023-01-29T10:49:33.083Z,101054.94
2023-01-29T10:52:01.382Z,101046.19
2023-01-29T10:54:27.834Z,101052.06
2023-01-29T10:59:38.323Z,101038.50
2023-01-29T11:02:04.718Z,101035.34
2023-01-29T11:04:31.129Z,101032.53
2023-01-29T11:06:57.569Z,101031.34
2023-01-29T11:09:23.983Z,101025.38
2023-01-29T11:14:44.382Z,101026.56
2023-01-29T11:17:11.649Z,101021.44
2023-01-29T11:19:38.011Z,101016.22
2023-01-29T11:22:04.431Z,101005.91
2023-01-29T11:24:30.869Z,101008.31
2023-01-29T11:29:50.720Z,100986.81
2023-01-29T11:32:17.109Z,100974.50
2023-01-29T11:34:43.427Z,100979.25
2023-01-29T11:37:09.833Z,100962.09
2023-01-29T11:39:36.232Z,100961.66
2023-01-29T11:44:56.698Z,100957.25
2023-01-29T11:47:23.074Z,100958.44
2023-01-29T11:49:49.449Z,100947.31
2023-01-29T11:52:15.857Z,100951.25
2023-01-29T11:54:42.454Z,100943.69
2023-01-29T12:00:03.596Z,100940.91
2023-01-29T12:02:30.811Z,100934.16
2023-01-29T12:04:58.051Z,100925.09
2023-01-29T12:07:24.407Z,100931.81
2023-01-29T12:09:50.764Z,100932.22
2023-01-29T12:15:11.893Z,100907.59
2023-01-29T12:17:38.250Z,100916.31
2023-01-29T12:20:04.678Z,100912.78
2023-01-29T12:22:31.230Z,100899.69
2023-01-29T12:24:57.674Z,100893.72
2023-01-29T12:30:08.240Z,100904.81
2023-01-29T12:32:34.663Z,100900.50
2023-01-29T12:35:01.058Z,100907.63
2023-01-29T12:37:27.467Z,100889.78
2023-01-29T12:39:53.835Z,100892.53
2023-01-29T12:45:03.987Z,100884.63
2023-01-29T12:47:31.214Z,100883.00
2023-01-29T12:49:59.493Z,100874.63
2023-01-29T12:52:25.849Z,100877.03
2023-01-29T12:54:52.422Z,100876.25
2023-01-29T13:00:03.160Z,100864.38
2023-01-29T13:02:29.601Z,100864.75
2023-01-29T13:04:58.819Z,100869.94
2023-01-29T13:07:25.281Z,100875.06
2023-01-29T13:09:53.569Z,100877.06
2023-01-29T13:12:20.063Z,100882.22
2023-01-29T13:14:46.492Z,100888.16
2023-01-29T13:17:14.818Z,100884.19
2023-01-29T13:19:44.011Z,100892.13
2023-01-29T13:22:10.484Z,100885.78
2023-01-29T13:24:39.657Z,100877.81
2023-01-29T13:27:09.602Z,100874.22
2023-01-29T13:29:36.875Z,100873.91
2023-01-29T13:32:04.183Z,100864.75
2023-01-29T13:34:30.675Z,100874.22
2023-01-29T13:36:57.146Z,100871.88
2023-01-29T13:39:23.795Z,100865.16
2023-01-29T13:41:52.974Z,100853.25
2023-01-29T13:44:19.478Z,100850.84
2023-01-29T13:46:47.783Z,100834.97
2023-01-29T13:49:14.209Z,100835.38
2023-01-29T13:51:42.519Z,100836.53
2023-01-29T13:54:10.823Z,100845.31
2023-01-29T13:56:37.272Z,100842.91
2023-01-29T13:59:05.643Z,100836.13
2023-01-29T14:01:32.142Z,100841.28
2023-01-29T14:04:06.189Z,100843.28
2023-01-29T14:06:32.867Z,100864.41
2023-01-29T14:08:59.376Z,100866.44
2023-01-29T14:11:27.676Z,100875.56
2023-01-29T14:13:54.240Z,100881.47
2023-01-29T14:16:21.528Z,100887.41
2023-01-29T14:18:48.859Z,100886.97
2023-01-29T14:21:16.191Z,100882.97
2023-01-29T14:23:42.605Z,100875.41
2023-01-29T14:26:09.102Z,100869.06
2023-01-29T14:28:35.587Z,100859.16
2023-01-29T14:31:02.113Z,100855.94
2023-01-29T14:33:28.583Z,100861.91
2023-01-29T14:35:55.060Z,100865.88
2023-01-29T14:38:21.514Z,100857.16
2023-01-29T14:40:49.813Z,100846.03
2023-01-29T14:43:16.259Z,100848.03
2023-01-29T14:48:37.704Z,100834.91
2023-01-29T14:51:04.161Z,100833.34
2023-01-29T14:53:32.907Z,100838.88
2023-01-29T14:55:59.398Z,100850.00
2023-01-29T14:58:26.767Z,100844.06
2023-01-29T15:03:37.929Z,100850.00
2023-01-29T15:06:05.311Z,100847.63
2023-01-29T15:08:31.780Z,100846.44
2023-01-29T15:10:59.071Z,100834.16
2023-01-29T15:13:26.456Z,100827.78
2023-01-29T15:18:37.680Z,100819.88
2023-01-29T15:21:05.788Z,100817.69
2023-01-29T15:23:32.617Z,100814.56
2023-01-29T15:25:59.120Z,100813.41
2023-01-29T15:28:25.615Z,100810.25
2023-01-29T15:33:47.681Z,100802.31
2023-01-29T15:36:14.153Z,100795.53
2023-01-29T15:38:41.529Z,100795.94
2023-01-29T15:41:08.023Z,100795.56
2023-01-29T15:43:34.472Z,100799.53
2023-01-29T15:48:54.946Z,100800.72
2023-01-29T15:51:21.469Z,100805.13
2023-01-29T15:53:47.882Z,100792.84
2023-01-29T15:56:15.119Z,100789.25
2023-01-29T15:58:41.553Z,100787.66
2023-01-29T16:03:52.146Z,100781.69
2023-01-29T16:06:19.376Z,100789.31
2023-01-29T16:08:45.828Z,100791.63
2023-01-29T16:11:12.249Z,100785.75
2023-01-29T16:13:38.678Z,100794.47
2023-01-29T16:19:01.056Z,100793.69
2023-01-29T16:21:29.573Z,100789.31
2023-01-29T16:23:58.043Z,100796.47
2023-01-29T16:26:24.525Z,100794.41
2023-01-29T16:28:53.721Z,100793.19
2023-01-29T16:34:16.038Z,100797.25
2023-01-29T16:36:42.499Z,100799.22
2023-01-29T16:39:08.947Z,100801.56
2023-01-29T16:41:35.436Z,100797.19
2023-01-29T16:44:03.746Z,100805.63
2023-01-29T16:49:24.053Z,100805.63
2023-01-29T16:51:52.352Z,100808.28
2023-01-29T16:54:18.829Z,100798.75
2023-01-29T16:56:47.102Z,100799.56
2023-01-29T16:59:13.615Z,100795.16
2023-01-29T17:04:37.784Z,100783.28
2023-01-29T17:07:05.131Z,100784.91
2023-01-29T17:09:32.462Z,100782.50
2023-01-29T17:11:58.887Z,100782.09
2023-01-29T17:14:26.155Z,100774.94
2023-01-29T17:19:49.440Z,100767.38
2023-01-29T17:22:16.129Z,100766.22
2023-01-29T17:24:42.605Z,100763.03
2023-01-29T17:27:09.053Z,100759.47
2023-01-29T17:29:36.424Z,100751.94
2023-01-29T17:34:48.717Z,100742.78
2023-01-29T17:37:15.161Z,100737.63
2023-01-29T17:39:41.736Z,100738.44
2023-01-29T17:42:09.024Z,100737.63
2023-01-29T17:44:35.507Z,100727.31
2023-01-29T17:49:58.771Z,100714.59
2023-01-29T17:52:26.003Z,100709.44
2023-01-29T17:54:56.061Z,100694.34
2023-01-29T17:57:22.685Z,100696.34
2023-01-29T17:59:49.120Z,100689.19
2023-01-29T18:04:59.818Z,100678.50
2023-01-29T18:07:27.056Z,100674.91
2023-01-29T18:09:53.508Z,100653.50
2023-01-29T18:12:19.940Z,100649.50
2023-01-29T18:14:46.320Z,100645.94
2023-01-29T18:20:08.004Z,100647.56
2023-01-29T18:22:37.332Z,100644.38
2023-01-29T18:25:03.745Z,100653.88
2023-01-29T18:27:32.907Z,100643.56
2023-01-29T18:30:00.173Z,100646.34
2023-01-29T18:35:13.056Z,100648.34
2023-01-29T18:37:39.496Z,100653.88
2023-01-29T18:40:05.849Z,100651.91
2023-01-29T18:42:33.465Z,100643.16
2023-01-29T18:44:59.951Z,100643.94
2023-01-29T18:50:10.497Z,100641.56
2023-01-29T18:52:36.971Z,100639.19
2023-01-29T18:55:03.460Z,100636.78
2023-01-29T18:58:26.488Z,100630.84
2023-01-29T19:00:18.284Z,100627.28
2023-01-29T19:05:39.928Z,100629.66
2023-01-29T19:08:06.463Z,100631.25
2023-01-29T19:10:32.986Z,100622.09
2023-01-29T19:12:59.646Z,100625.28
2023-01-29T19:15:27.120Z,100631.22
2023-01-29T19:20:38.384Z,100627.25
2023-01-29T19:23:04.863Z,100623.66
2023-01-29T19:25:31.375Z,100620.88
2023-01-29T19:27:58.788Z,100616.94
2023-01-29T19:30:26.413Z,100604.63
2023-01-29T19:32:52.954Z,100607.41
2023-01-29T19:35:20.493Z,100599.47
2023-01-29T19:37:47.926Z,100593.91
2023-01-29T19:40:14.434Z,100589.53
2023-01-29T19:42:40.928Z,100584.78
2023-01-29T19:45:08.370Z,100584.78
2023-01-29T19:47:35.987Z,100588.38
2023-01-29T19:50:03.440Z,100590.31
2023-01-29T19:52:38.503Z,100583.22
2023-01-29T19:55:15.526Z,100574.09
2023-01-29T19:57:42.275Z,100575.28
2023-01-29T20:00:08.914Z,100564.94
2023-01-29T20:02:35.376Z,100572.09
2023-01-29T20:05:01.864Z,100574.88
2023-01-29T20:07:29.275Z,100566.53
2023-01-29T20:09:55.775Z,100559.38
2023-01-29T20:12:23.412Z,100553.84
2023-01-29T20:14:50.794Z,100549.88
2023-01-29T20:17:17.276Z,100545.09
2023-01-29T20:19:45.463Z,100542.75
2023-01-29T20:22:12.097Z,100534.81
2023-01-29T20:24:39.577Z,100532.03
2023-01-29T20:27:06.081Z,100530.81
2023-01-29T20:29:33.482Z,100538.34
2023-01-29T20:32:00.071Z,100525.25
2023-01-29T20:34:27.490Z,100515.75
2023-01-29T20:36:54.935Z,100511.75
2023-01-29T20:39:21.465Z,100502.63
2023-01-29T20:41:48.132Z,100498.69
2023-01-29T20:44:14.631Z,100488.75
2023-01-29T20:46:42.020Z,100493.50
2023-01-29T20:49:08.658Z,100486.34
2023-01-29T20:54:22.275Z,100480.03
2023-01-29T20:56:49.898Z,100482.00
2023-01-29T20:59:17.510Z,100483.19
2023-01-29T21:01:44.651Z,100470.91
2023-01-29T21:04:11.149Z,100477.63
2023-01-29T21:09:32.522Z,100464.56
2023-01-29T21:11:59.234Z,100465.72
2023-01-29T21:14:26.639Z,100468.13
2023-01-29T21:16:53.182Z,100464.13
2023-01-29T21:19:21.517Z,100462.94
2023-01-29T21:24:33.034Z,100464.94
2023-01-29T21:26:59.520Z,100461.75
2023-01-29T21:29:26.951Z,100459.78
2023-01-29T21:31:53.466Z,100466.50
2023-01-29T21:34:20.943Z,100455.38
2023-01-29T21:39:32.489Z,100456.22
2023-01-29T21:41:59.954Z,100455.00
2023-01-29T21:44:27.399Z,100451.41
2023-01-29T21:46:54.008Z,100449.03
2023-01-29T21:49:20.512Z,100439.13
2023-01-29T21:54:32.080Z,100430.78
2023-01-29T21:56:59.469Z,100424.03
2023-01-29T21:59:27.029Z,100417.28
2023-01-29T22:01:54.456Z,100408.97
2023-01-29T22:04:21.838Z,100408.16
2023-01-29T22:09:44.148Z,100405.00
2023-01-29T22:12:10.978Z,100406.16
2023-01-29T22:14:37.426Z,100395.88
2023-01-29T22:17:04.855Z,100395.88
2023-01-29T22:19:32.207Z,100382.78
2023-01-29T22:24:53.431Z,100368.06
2023-01-29T22:27:20.964Z,100362.53
2023-01-29T22:29:47.400Z,100355.38
2023-01-29T22:32:14.738Z,100354.19
2023-01-29T22:34:44.723Z,100356.19
2023-01-29T22:39:55.945Z,100335.13
2023-01-29T22:42:22.426Z,100333.56
2023-01-29T22:44:48.899Z,100318.06
2023-01-29T22:47:15.401Z,100316.47
2023-01-29T22:49:41.947Z,100318.06
2023-01-29T22:55:03.172Z,100306.16
2023-01-29T22:57:29.782Z,100292.25
2023-01-29T22:59:56.285Z,100284.34
2023-01-29T23:02:22.732Z,100279.97
2023-01-29T23:04:52.707Z,100274.81
2023-01-29T23:10:07.273Z,100266.09
2023-01-29T23:12:33.784Z,100257.75
2023-01-29T23:15:03.018Z,100259.75
2023-01-29T23:17:29.519Z,100258.94
2023-01-29T23:19:55.995Z,100254.59
2023-01-29T23:25:18.098Z,100252.19
2023-01-29T23:27:44.544Z,100244.25
2023-01-29T23:30:11.019Z,100240.31
2023-01-29T23:32:37.718Z,100228.38
2023-01-29T23:35:04.109Z,100230.78
2023-01-29T23:40:26.076Z,100226.38
2023-01-29T23:42:52.532Z,100227.56
2023-01-29T23:45:18.993Z,100215.31
2023-01-29T23:47:46.226Z,100215.69
2023-01-29T23:50:12.677Z,100212.13
2023-01-29T23:55:28.489Z,100209.34
2023-01-29T23:57:57.618Z,100205.78
